Time;durP1;ratioP1;P1;durP2;ratioP2;P2;SDS_P1;SDS_P2;PMS_P1;PMS_P2;Temp;Humidity;BMP_temperature;BMP_pressure;BME280_temperature;BME280_humidity;BME280_pressure;Samples;Min_cycle;Max_cycle;Signal;HPM_P1;HPM_P2
2022/10/20 00:00:20;;;;;;;5.57;1.83;;;10.30;99.90;;;;;;5128620;27;20857;-68
2022/10/20 00:02:46;;;;;;;2.37;1.83;;;10.30;99.90;;;;;;5128836;27;20241;-68
2022/10/20 00:05:13;;;;;;;1.90;1.80;;;10.30;99.90;;;;;;5128775;27;20213;-68
2022/10/20 00:07:41;;;;;;;2.00;1.90;;;10.30;99.90;;;;;;5128168;27;20200;-68
2022/10/20 00:10:09;;;;;;;1.70;1.60;;;10.30;99.90;;;;;;5128609;27;20197;-68
2022/10/20 00:12:35;;;;;;;2.00;1.80;;;10.30;99.90;;;;;;5128931;27;20225;-68
2022/10/20 00:15:02;;;;;;;2.00;1.80;;;10.30;99.90;;;;;;5128918;27;20216;-68
2022/10/20 00:17:29;;;;;;;2.00;1.90;;;10.20;99.90;;;;;;5128809;27;20229;-68
2022/10/20 00:19:57;;;;;;;6.33;2.10;;;10.20;99.90;;;;;;5128349;27;20205;-68
2022/10/20 00:22:23;;;;;;;2.27;1.90;;;10.20;99.90;;;;;;5116252;27;20287;-68
2022/10/20 00:24:53;;;;;;;2.30;2.10;;;10.20;99.90;;;;;;5108013;28;20681;-69
2022/10/20 00:27:20;;;;;;;1.90;1.80;;;10.20;99.90;;;;;;5108010;28;20210;-70
2022/10/20 00:29:48;;;;;;;2.53;1.80;;;10.10;99.90;;;;;;5108148;28;20202;-70
2022/10/20 00:32:15;;;;;;;1.90;1.70;;;10.10;99.90;;;;;;5126603;28;20225;-67
2022/10/20 00:34:42;;;;;;;2.87;1.97;;;10.10;99.90;;;;;;5128586;27;20205;-67
2022/10/20 00:37:08;;;;;;;1.83;1.73;;;10.10;99.90;;;;;;5128403;27;20216;-67
2022/10/20 00:39:35;;;;;;;1.50;1.50;;;10.10;99.90;;;;;;5128121;27;20197;-67
2022/10/20 00:42:04;;;;;;;2.63;2.00;;;10.00;99.90;;;;;;5128190;27;20201;-67
2022/10/20 00:44:53;;;;;;;2.10;1.90;;;10.00;99.90;;;;;;5128236;27;20197;-68
2022/10/20 00:47:23;;;;;;;1.93;1.80;;;10.00;99.90;;;;;;5128065;27;20637;-68
2022/10/20 00:49:51;;;;;;;1.80;1.63;;;10.00;99.90;;;;;;5127899;27;20197;-68
2022/10/20 00:52:20;;;;;;;1.57;1.43;;;10.00;99.90;;;;;;5127891;27;20202;-68
2022/10/20 00:54:48;;;;;;;2.23;1.70;;;10.00;99.90;;;;;;5128022;27;20201;-68
2022/10/20 00:57:17;;;;;;;1.60;1.50;;;10.00;99.90;;;;;;5127872;27;20209;-68
2022/10/20 00:59:44;;;;;;;1.77;1.67;;;10.00;99.90;;;;;;5128032;27;20622;-68
2022/10/20 01:02:11;;;;;;;1.80;1.70;;;9.90;99.90;;;;;;5127659;27;20252;-69
2022/10/20 01:04:39;;;;;;;2.10;1.80;;;9.90;99.90;;;;;;5128078;27;20197;-69
2022/10/20 01:07:06;;;;;;;1.63;1.53;;;9.90;99.90;;;;;;5128275;27;20206;-69
2022/10/20 01:09:33;;;;;;;2.90;1.77;;;9.90;99.90;;;;;;5127598;27;20950;-69
2022/10/20 01:12:08;;;;;;;4.57;2.13;;;9.90;99.90;;;;;;5127523;27;20913;-70
2022/10/20 01:14:46;;;;;;;1.67;1.57;;;9.90;99.90;;;;;;5127707;27;20207;-68
2022/10/20 01:17:22;;;;;;;1.97;1.87;;;9.90;99.90;;;;;;5127700;27;20190;-68
2022/10/20 01:20:18;;;;;;;2.80;1.90;;;9.90;99.90;;;;;;5130174;27;20190;-68
2022/10/20 01:23:26;;;;;;;2.53;1.90;;;9.80;99.90;;;;;;5131541;27;20212;-68
2022/10/20 01:26:16;;;;;;;2.33;1.77;;;9.80;99.90;;;;;;5047598;28;20216;-68
2022/10/20 01:28:51;;;;;;;2.17;1.80;;;9.80;99.90;;;;;;5027746;28;20201;-68
2022/10/20 01:31:28;;;;;;;1.97;1.83;;;9.80;99.90;;;;;;5081864;28;20202;-69
2022/10/20 01:34:02;;;;;;;1.97;1.87;;;9.80;99.90;;;;;;5111165;28;20214;-69
2022/10/20 01:36:34;;;;;;;3.63;1.80;;;9.80;99.90;;;;;;5118351;27;20220;-69
2022/10/20 01:39:06;;;;;;;2.47;2.07;;;9.70;99.90;;;;;;5131713;27;20217;-68
2022/10/20 01:41:38;;;;;;;2.00;1.70;;;9.70;99.90;;;;;;5131263;27;20194;-68
2022/10/20 01:44:09;;;;;;;2.13;1.93;;;9.70;99.90;;;;;;5131484;27;20289;-68
2022/10/20 01:46:39;;;;;;;3.47;1.80;;;9.70;99.90;;;;;;5131650;27;20190;-68
2022/10/20 01:49:07;;;;;;;2.23;2.03;;;9.70;99.90;;;;;;5128923;27;20679;-68
2022/10/20 01:51:34;;;;;;;2.20;2.00;;;9.70;99.90;;;;;;5127377;27;20214;-68
2022/10/20 01:54:01;;;;;;;2.60;2.10;;;9.60;99.90;;;;;;5110838;28;20256;-68
2022/10/20 01:56:36;;;;;;;2.03;1.87;;;9.60;99.90;;;;;;5110588;28;20224;-68
2022/10/20 01:59:33;;;;;;;2.17;1.97;;;9.60;99.90;;;;;;5110758;28;20212;-68
2022/10/20 02:05:46;;;;;;;3.13;1.90;;;9.50;99.90;;;;;;5130356;27;20678;-69
2022/10/20 02:08:22;;;;;;;2.00;1.80;;;9.50;99.90;;;;;;5131158;27;20221;-69
2022/10/20 02:10:52;;;;;;;2.03;1.83;;;9.50;99.90;;;;;;5130518;27;20197;-69
2022/10/20 02:13:21;;;;;;;5.40;2.03;;;9.50;99.90;;;;;;5131251;27;20243;-68
2022/10/20 02:15:53;;;;;;;1.90;1.80;;;9.50;99.90;;;;;;5130822;27;20675;-68
2022/10/20 02:18:24;;;;;;;1.77;1.67;;;9.50;99.90;;;;;;5130713;27;20298;-68
2022/10/20 02:20:53;;;;;;;2.27;1.70;;;9.50;99.90;;;;;;5130137;27;20200;-68
2022/10/20 02:23:20;;;;;;;2.03;1.57;;;9.40;99.90;;;;;;5130423;27;20771;-68
2022/10/20 02:25:49;;;;;;;2.90;1.60;;;9.40;99.90;;;;;;5130303;27;20205;-68
2022/10/20 02:28:17;;;;;;;1.70;1.60;;;9.40;99.90;;;;;;5130216;27;20205;-68
2022/10/20 02:30:45;;;;;;;1.83;1.73;;;9.50;99.90;;;;;;5129634;27;20198;-67
2022/10/20 02:33:14;;;;;;;2.00;1.80;;;9.40;99.90;;;;;;5128074;27;20725;-68
2022/10/20 02:35:43;;;;;;;1.90;1.77;;;9.40;99.90;;;;;;5130273;27;20216;-68
2022/10/20 02:38:10;;;;;;;2.80;1.80;;;9.40;99.90;;;;;;5130476;27;20202;-68
2022/10/20 02:40:37;;;;;;;3.30;1.80;;;9.40;99.90;;;;;;5129634;27;20690;-68
2022/10/20 02:43:03;;;;;;;1.83;1.60;;;9.40;99.90;;;;;;5130567;27;20629;-68
2022/10/20 02:45:30;;;;;;;2.83;1.50;;;9.40;99.90;;;;;;5130263;27;20578;-69
2022/10/20 02:47:57;;;;;;;2.23;1.93;;;9.40;99.90;;;;;;5130155;27;20205;-69
2022/10/20 02:50:25;;;;;;;1.90;1.60;;;9.40;99.90;;;;;;5129872;27;20301;-69
2022/10/20 02:52:52;;;;;;;2.20;1.70;;;9.30;99.90;;;;;;5130196;27;20205;-69
2022/10/20 02:55:19;;;;;;;1.80;1.70;;;9.30;99.90;;;;;;5129655;27;20202;-69
2022/10/20 02:57:45;;;;;;;3.53;1.70;;;9.30;99.90;;;;;;5130192;27;21030;-69
2022/10/20 03:00:14;;;;;;;2.03;1.77;;;9.30;99.90;;;;;;5129905;27;20197;-69
2022/10/20 03:02:40;;;;;;;4.30;2.33;;;9.20;99.90;;;;;;5129733;27;20233;-69
2022/10/20 03:05:08;;;;;;;2.30;1.43;;;9.20;99.90;;;;;;5130006;27;20209;-69
2022/10/20 03:07:36;;;;;;;2.10;1.70;;;9.20;99.90;;;;;;5129744;27;20202;-69
2022/10/20 03:10:03;;;;;;;3.37;1.93;;;9.20;99.90;;;;;;5128084;27;20206;-69
2022/10/20 03:12:30;;;;;;;1.97;1.80;;;9.20;99.90;;;;;;5129269;27;20205;-68
2022/10/20 03:14:56;;;;;;;1.90;1.80;;;9.20;99.90;;;;;;5129783;27;20571;-69
2022/10/20 03:17:23;;;;;;;1.97;1.77;;;9.20;99.90;;;;;;5129463;27;20236;-69
2022/10/20 03:19:50;;;;;;;2.37;1.97;;;9.20;99.90;;;;;;5129701;27;20212;-69
2022/10/20 03:22:17;;;;;;;1.77;1.67;;;9.20;99.90;;;;;;5129720;27;20205;-68
2022/10/20 03:24:45;;;;;;;3.90;2.10;;;9.20;99.90;;;;;;5129404;27;20209;-69
2022/10/20 03:27:13;;;;;;;3.00;2.20;;;9.10;99.90;;;;;;5129019;27;20213;-68
2022/10/20 03:29:40;;;;;;;3.27;2.27;;;9.10;99.90;;;;;;5115894;27;20288;-69
2022/10/20 03:32:07;;;;;;;3.37;1.77;;;9.10;99.90;;;;;;5113777;27;20205;-69
2022/10/20 03:34:34;;;;;;;2.37;2.17;;;9.00;99.90;;;;;;5129385;27;20221;-68
2022/10/20 03:37:00;;;;;;;2.70;2.10;;;9.10;99.90;;;;;;5129358;27;20205;-68
2022/10/20 03:39:27;;;;;;;2.30;2.10;;;9.00;99.90;;;;;;5129179;27;20201;-68
2022/10/20 03:41:56;;;;;;;2.07;1.97;;;9.00;99.90;;;;;;5128285;27;20750;-67
2022/10/20 03:44:23;;;;;;;2.10;2.00;;;9.00;99.90;;;;;;5128831;27;20266;-67
2022/10/20 03:46:49;;;;;;;2.20;2.10;;;9.00;99.90;;;;;;5129300;27;20201;-67
2022/10/20 03:49:16;;;;;;;2.77;2.10;;;8.90;99.90;;;;;;5128967;27;20197;-67
2022/10/20 03:51:43;;;;;;;2.57;2.30;;;8.90;99.90;;;;;;5123864;27;20206;-68
2022/10/20 03:54:09;;;;;;;2.40;2.20;;;8.90;99.90;;;;;;5108658;27;20742;-68
2022/10/20 03:56:36;;;;;;;2.40;2.20;;;8.90;99.90;;;;;;5107930;28;20198;-68
2022/10/20 03:59:04;;;;;;;2.67;2.10;;;8.90;99.90;;;;;;5108437;28;20206;-69
2022/10/20 04:01:33;;;;;;;2.10;1.93;;;8.90;99.90;;;;;;5122788;27;20235;-69
2022/10/20 04:04:00;;;;;;;2.23;2.07;;;8.90;99.90;;;;;;5128741;27;20201;-69
2022/10/20 04:06:28;;;;;;;2.40;2.30;;;8.90;99.90;;;;;;5124556;27;20198;-69
2022/10/20 04:08:55;;;;;;;3.00;2.40;;;8.80;99.90;;;;;;5108306;28;20299;-69
2022/10/20 04:11:22;;;;;;;3.87;2.50;;;8.80;99.90;;;;;;5120423;27;20228;-69
2022/10/20 04:13:50;;;;;;;2.40;2.20;;;8.80;99.90;;;;;;5128778;27;20314;-68
2022/10/20 04:16:18;;;;;;;2.40;2.27;;;8.80;99.90;;;;;;5128594;27;20258;-68
2022/10/20 04:18:45;;;;;;;3.77;2.50;;;8.80;99.90;;;;;;5128042;27;20217;-68
2022/10/20 04:21:11;;;;;;;2.47;2.27;;;8.80;99.90;;;;;;5127662;27;20209;-68
2022/10/20 04:23:38;;;;;;;2.50;2.30;;;8.80;99.90;;;;;;5115720;28;20213;-68
2022/10/20 04:26:09;;;;;;;4.77;2.73;;;8.80;99.90;;;;;;5113582;27;20209;-69
2022/10/20 04:28:36;;;;;;;5.33;3.00;;;8.70;99.90;;;;;;5114107;28;20232;-68
2022/10/20 04:31:03;;;;;;;2.70;2.50;;;8.70;99.90;;;;;;5128579;27;20201;-68
2022/10/20 04:33:31;;;;;;;3.13;2.80;;;8.70;99.90;;;;;;5128398;27;20222;-68
2022/10/20 04:35:59;;;;;;;3.43;2.90;;;8.70;99.90;;;;;;5128696;27;20209;-68
2022/10/20 04:38:26;;;;;;;4.80;3.00;;;8.70;99.90;;;;;;5127765;27;20807;-68
2022/10/20 04:40:56;;;;;;;4.63;3.23;;;8.70;99.90;;;;;;5128372;27;20228;-68
2022/10/20 04:43:23;;;;;;;3.10;2.80;;;8.70;99.90;;;;;;5128526;27;20209;-68
2022/10/20 04:45:50;;;;;;;3.27;3.00;;;8.70;99.90;;;;;;5127991;27;20208;-68
2022/10/20 04:48:17;;;;;;;3.07;2.77;;;8.70;99.90;;;;;;5126783;27;20206;-68
2022/10/20 04:50:45;;;;;;;2.77;2.57;;;8.60;99.90;;;;;;5107419;28;20653;-68
2022/10/20 04:53:12;;;;;;;4.53;3.03;;;8.70;99.90;;;;;;5107435;28;20210;-68
2022/10/20 04:55:38;;;;;;;2.97;2.73;;;8.60;99.90;;;;;;5111203;27;20234;-67
2022/10/20 04:58:05;;;;;;;3.20;2.90;;;8.60;99.90;;;;;;5112347;27;20202;-68
2022/10/20 05:00:32;;;;;;;3.87;3.37;;;8.60;99.90;;;;;;5132069;27;20226;-68
2022/10/20 05:02:58;;;;;;;3.07;2.87;;;8.60;99.90;;;;;;5128265;27;20602;-68
2022/10/20 05:05:25;;;;;;;4.33;3.30;;;8.50;99.90;;;;;;5132307;27;20201;-68
2022/10/20 05:07:53;;;;;;;3.37;3.00;;;8.50;99.90;;;;;;5132088;27;20205;-68
2022/10/20 05:10:22;;;;;;;3.83;3.37;;;8.50;99.90;;;;;;5131699;27;20197;-68
2022/10/20 05:12:49;;;;;;;3.87;3.17;;;8.50;99.90;;;;;;5132085;27;20758;-68
2022/10/20 05:15:16;;;;;;;5.17;3.30;;;8.50;99.90;;;;;;5131690;27;20221;-68
2022/10/20 05:17:43;;;;;;;4.97;3.23;;;8.40;99.90;;;;;;5131468;27;20655;-69
2022/10/20 05:20:10;;;;;;;4.10;3.50;;;8.40;99.90;;;;;;5121551;27;20209;-68
2022/10/20 05:22:37;;;;;;;3.93;3.20;;;8.40;99.90;;;;;;5111316;28;20648;-68
2022/10/20 05:25:05;;;;;;;3.40;3.13;;;8.40;99.90;;;;;;5111553;28;20206;-68
2022/10/20 05:27:32;;;;;;;3.73;3.40;;;8.40;99.90;;;;;;5111178;28;20586;-68
2022/10/20 05:30:01;;;;;;;4.33;3.33;;;8.40;99.90;;;;;;5127571;27;20205;-68
2022/10/20 05:32:28;;;;;;;6.00;3.80;;;8.40;99.90;;;;;;5131409;27;20555;-68
2022/10/20 05:34:55;;;;;;;4.33;3.53;;;8.40;99.90;;;;;;5123000;27;20230;-68
2022/10/20 05:37:22;;;;;;;4.97;3.93;;;8.40;99.90;;;;;;5111173;28;20271;-68
2022/10/20 05:39:48;;;;;;;3.87;3.50;;;8.40;99.90;;;;;;5125362;27;20198;-68
2022/10/20 05:42:16;;;;;;;4.80;3.50;;;8.30;99.90;;;;;;5131439;27;20236;-68
2022/10/20 05:44:43;;;;;;;3.57;3.27;;;8.40;99.90;;;;;;5117524;27;20570;-68
2022/10/20 05:47:10;;;;;;;3.87;3.47;;;8.40;99.90;;;;;;5110775;28;20206;-68
2022/10/20 05:49:37;;;;;;;3.97;3.57;;;8.40;99.90;;;;;;5123174;27;20205;-68
2022/10/20 05:52:03;;;;;;;4.10;3.70;;;8.40;99.90;;;;;;5123738;27;20248;-68
2022/10/20 05:54:30;;;;;;;4.20;3.63;;;8.40;99.90;;;;;;5110022;28;20226;-68
2022/10/20 05:56:57;;;;;;;4.63;3.60;;;8.40;99.90;;;;;;5128578;27;20194;-68
2022/10/20 05:59:25;;;;;;;3.70;3.40;;;8.40;99.90;;;;;;5122585;27;20242;-68
2022/10/20 06:01:52;;;;;;;3.63;3.33;;;8.40;99.90;;;;;;5109984;28;20237;-69
2022/10/20 06:04:22;;;;;;;5.97;3.80;;;8.40;99.90;;;;;;5110631;28;20217;-69
2022/10/20 06:06:50;;;;;;;4.37;3.97;;;8.40;99.90;;;;;;5125242;27;20265;-69
2022/10/20 06:09:18;;;;;;;3.67;3.03;;;8.50;99.90;;;;;;5127533;27;20216;-69
2022/10/20 06:11:44;;;;;;;4.10;3.80;;;8.40;99.90;;;;;;5129973;27;20198;-69
2022/10/20 06:14:11;;;;;;;4.10;3.80;;;8.50;99.90;;;;;;5129729;27;20237;-69
2022/10/20 06:16:39;;;;;;;4.27;3.47;;;8.50;99.90;;;;;;5130558;27;20198;-68
2022/10/20 06:19:06;;;;;;;3.87;3.33;;;8.50;99.90;;;;;;5126494;27;20314;-68
2022/10/20 06:21:35;;;;;;;4.10;3.70;;;8.40;99.90;;;;;;5130482;27;20209;-68
2022/10/20 06:24:03;;;;;;;3.87;3.57;;;8.50;99.90;;;;;;5129666;27;20213;-68
2022/10/20 06:26:32;;;;;;;4.80;4.30;;;8.40;99.90;;;;;;5129475;27;20197;-68
2022/10/20 06:28:59;;;;;;;3.77;3.47;;;8.40;99.90;;;;;;5129716;27;20201;-68
2022/10/20 06:31:28;;;;;;;6.13;4.03;;;8.40;99.90;;;;;;5130113;27;20204;-68
2022/10/20 06:33:57;;;;;;;4.90;4.23;;;8.40;99.90;;;;;;5130092;27;20198;-68
2022/10/20 06:36:25;;;;;;;4.03;3.70;;;8.40;99.90;;;;;;5129703;27;20189;-68
2022/10/20 06:38:54;;;;;;;6.10;3.90;;;8.40;99.90;;;;;;5130190;27;20205;-68
2022/10/20 06:41:20;;;;;;;5.03;3.67;;;8.40;99.90;;;;;;5129242;27;20232;-67
2022/10/20 06:43:47;;;;;;;5.07;3.60;;;8.40;99.90;;;;;;5129748;27;20189;-67
2022/10/20 06:46:16;;;;;;;4.00;3.43;;;8.40;99.90;;;;;;5129617;27;20198;-67
2022/10/20 06:48:43;;;;;;;5.90;4.20;;;8.40;99.90;;;;;;5128716;27;20210;-68
2022/10/20 06:51:13;;;;;;;4.40;4.00;;;8.50;99.90;;;;;;5129056;27;20204;-67
2022/10/20 06:53:40;;;;;;;5.87;3.90;;;8.50;99.90;;;;;;5112477;27;20209;-67
2022/10/20 06:56:10;;;;;;;3.83;3.53;;;8.50;99.90;;;;;;5111742;27;20246;-67
2022/10/20 06:58:38;;;;;;;4.40;4.00;;;8.50;99.90;;;;;;5107957;28;20206;-68
2022/10/20 07:01:06;;;;;;;4.17;3.77;;;8.60;99.90;;;;;;5107964;28;20206;-68
2022/10/20 07:03:35;;;;;;;4.47;4.07;;;8.60;99.90;;;;;;5107917;28;20194;-67
2022/10/20 07:06:03;;;;;;;8.17;5.33;;;8.60;99.90;;;;;;5124994;27;20228;-67
2022/10/20 07:08:32;;;;;;;6.90;4.23;;;8.70;99.90;;;;;;5127751;27;20209;-68
2022/10/20 07:11:01;;;;;;;5.33;4.20;;;8.80;99.90;;;;;;5122576;27;20656;-68
2022/10/20 07:13:29;;;;;;;6.03;4.40;;;8.80;99.90;;;;;;5124487;27;20210;-68
2022/10/20 07:15:56;;;;;;;4.50;4.10;;;8.90;99.90;;;;;;5107154;28;20600;-68
2022/10/20 07:18:23;;;;;;;5.67;4.00;;;9.00;99.90;;;;;;5106682;28;20226;-68
2022/10/20 07:20:50;;;;;;;4.57;4.17;;;9.00;99.90;;;;;;5107149;28;20202;-68
2022/10/20 07:23:17;;;;;;;4.97;4.00;;;9.10;99.90;;;;;;5107035;28;20229;-68
2022/10/20 07:25:48;;;;;;;3.87;3.57;;;9.20;99.90;;;;;;5106967;28;20210;-68
2022/10/20 07:28:15;;;;;;;5.30;4.00;;;9.20;99.90;;;;;;5107121;28;20217;-68
2022/10/20 07:30:42;;;;;;;5.53;4.03;;;9.30;99.90;;;;;;5106965;28;20206;-68
2022/10/20 07:33:09;;;;;;;5.27;3.97;;;9.40;99.90;;;;;;5106456;28;20221;-68
2022/10/20 07:35:36;;;;;;;4.37;3.93;;;9.40;99.90;;;;;;5119641;27;20260;-68
2022/10/20 07:38:03;;;;;;;4.07;3.67;;;9.50;99.90;;;;;;5106755;28;20213;-69
2022/10/20 07:40:30;;;;;;;5.23;3.93;;;9.60;99.90;;;;;;5106516;28;20206;-68
2022/10/20 07:42:58;;;;;;;4.37;3.77;;;9.70;99.90;;;;;;5106577;28;20210;-68
2022/10/20 07:45:25;;;;;;;4.43;4.03;;;9.80;99.90;;;;;;5113201;27;20204;-69
2022/10/20 07:47:51;;;;;;;4.93;3.90;;;9.80;99.90;;;;;;5126825;27;20797;-68
2022/10/20 07:50:18;;;;;;;5.20;4.20;;;9.90;99.90;;;;;;5126676;27;20207;-68
2022/10/20 07:52:49;;;;;;;4.03;3.63;;;10.00;99.90;;;;;;5113006;27;20736;-68
2022/10/20 07:55:16;;;;;;;4.43;3.73;;;10.10;99.90;;;;;;5120323;27;20221;-68
2022/10/20 07:57:43;;;;;;;6.80;3.67;;;10.20;99.90;;;;;;5126651;27;20216;-68
2022/10/20 08:00:12;;;;;;;3.80;3.47;;;10.20;99.90;;;;;;5126544;27;20223;-68
2022/10/20 08:02:40;;;;;;;4.83;3.97;;;10.30;99.90;;;;;;5126179;27;20237;-68
2022/10/20 08:05:07;;;;;;;3.87;3.30;;;10.40;99.90;;;;;;5126572;27;20197;-68
2022/10/20 08:07:34;;;;;;;3.43;3.13;;;10.50;99.90;;;;;;5108625;27;20217;-69
2022/10/20 08:10:01;;;;;;;4.10;3.50;;;10.60;99.90;;;;;;5111024;27;20205;-68
2022/10/20 08:12:28;;;;;;;3.43;3.13;;;10.60;99.90;;;;;;5126090;27;20209;-68
2022/10/20 08:14:55;;;;;;;3.50;3.07;;;10.70;99.90;;;;;;5126197;27;20236;-68
2022/10/20 08:17:23;;;;;;;3.10;2.90;;;10.70;99.90;;;;;;5126603;27;20241;-68
2022/10/20 08:19:49;;;;;;;3.93;3.07;;;10.80;99.90;;;;;;5126689;27;20638;-69
2022/10/20 08:22:18;;;;;;;3.67;3.33;;;10.90;99.90;;;;;;5126758;27;20213;-68
2022/10/20 08:24:44;;;;;;;4.13;3.07;;;10.90;99.90;;;;;;5126630;27;20205;-68
2022/10/20 08:27:11;;;;;;;5.00;3.20;;;11.00;99.90;;;;;;5126488;27;20205;-69
2022/10/20 08:29:38;;;;;;;3.57;3.13;;;11.00;99.90;;;;;;5125932;27;20198;-69
2022/10/20 08:32:05;;;;;;;5.10;3.47;;;11.10;99.90;;;;;;5125685;27;20201;-68
2022/10/20 08:34:33;;;;;;;4.40;3.07;;;11.10;99.90;;;;;;5125436;27;20199;-68
2022/10/20 08:37:00;;;;;;;5.33;2.87;;;11.20;99.90;;;;;;5126081;27;20668;-68
2022/10/20 08:39:27;;;;;;;4.10;2.70;;;11.20;99.90;;;;;;5126300;27;20609;-68
2022/10/20 08:41:54;;;;;;;4.27;2.70;;;11.30;99.90;;;;;;5126183;27;20220;-68
2022/10/20 08:44:24;;;;;;;3.00;2.80;;;11.30;99.90;;;;;;5126199;27;20294;-68
2022/10/20 08:46:52;;;;;;;3.00;2.47;;;11.40;99.90;;;;;;5126439;27;20216;-68
2022/10/20 08:49:24;;;;;;;4.20;3.50;;;11.40;99.90;;;;;;5125723;27;20194;-68
2022/10/20 08:51:52;;;;;;;2.93;2.73;;;11.50;99.90;;;;;;5126053;27;20197;-68
2022/10/20 08:54:19;;;;;;;3.60;2.90;;;11.60;99.90;;;;;;5126081;27;20205;-68
2022/10/20 08:56:46;;;;;;;3.97;2.50;;;11.60;99.90;;;;;;5125921;27;20233;-68
2022/10/20 08:59:25;;;;;;;3.13;2.80;;;11.70;99.90;;;;;;5125961;27;20553;-68
2022/10/20 09:01:52;;;;;;;3.00;2.80;;;11.80;99.90;;;;;;5125613;27;20236;-68
2022/10/20 09:04:20;;;;;;;5.33;2.97;;;11.90;99.90;;;;;;5125160;27;20209;-68
2022/10/20 09:06:51;;;;;;;3.30;3.00;;;12.00;99.90;;;;;;5123624;27;20207;-69
2022/10/20 09:09:22;;;;;;;2.90;2.60;;;12.10;99.90;;;;;;5114083;28;20222;-68
2022/10/20 09:11:49;;;;;;;3.47;2.77;;;12.20;99.90;;;;;;5106150;28;20209;-68
2022/10/20 09:14:16;;;;;;;2.70;2.50;;;12.20;99.90;;;;;;5113014;28;20213;-69
2022/10/20 09:16:45;;;;;;;3.57;2.70;;;12.20;99.90;;;;;;5125896;27;20241;-69
2022/10/20 09:19:17;;;;;;;4.90;2.83;;;12.30;99.90;;;;;;5125898;27;20206;-68
2022/10/20 09:21:46;;;;;;;7.30;2.90;;;12.30;99.90;;;;;;5120321;27;20668;-69
2022/10/20 09:24:13;;;;;;;5.83;2.70;;;12.40;99.90;;;;;;5113201;28;20208;-68
2022/10/20 09:26:45;;;;;;;4.23;2.93;;;12.50;99.90;;;;;;5125515;27;20270;-69
2022/10/20 09:29:13;;;;;;;4.27;2.70;;;12.60;99.90;;;;;;5116502;27;20209;-69
2022/10/20 09:31:42;;;;;;;4.23;2.80;;;12.60;99.90;;;;;;5105637;28;20218;-69
2022/10/20 09:34:27;;;;;;;3.20;2.90;;;12.60;99.90;;;;;;5123227;28;20200;-66
2022/10/20 09:36:59;;;;;;;4.53;3.10;;;12.70;99.90;;;;;;5124129;28;20224;-67
2022/10/20 09:39:28;;;;;;;4.53;2.90;;;12.80;99.90;;;;;;5127393;27;20197;-68
2022/10/20 09:42:04;;;;;;;3.03;2.73;;;12.90;99.90;;;;;;5127067;27;20205;-68
2022/10/20 09:44:33;;;;;;;3.53;3.23;;;13.00;99.90;;;;;;5121002;27;20206;-68
2022/10/20 09:47:02;;;;;;;3.27;3.00;;;13.00;99.90;;;;;;5115338;27;20197;-68
2022/10/20 09:49:31;;;;;;;2.70;2.50;;;13.00;99.90;;;;;;5130597;27;20197;-68
2022/10/20 09:51:59;;;;;;;3.40;3.10;;;13.00;99.90;;;;;;5128930;27;20283;-69
2022/10/20 09:54:27;;;;;;;3.50;3.20;;;13.10;99.90;;;;;;5130520;27;20577;-68
2022/10/20 09:57:03;;;;;;;4.87;3.30;;;13.10;99.90;;;;;;5130648;27;20228;-69
2022/10/20 09:59:34;;;;;;;3.07;2.87;;;13.10;99.90;;;;;;5130661;27;20204;-68
2022/10/20 10:02:03;;;;;;;6.00;2.83;;;13.10;99.90;;;;;;5130302;27;20237;-68
2022/10/20 10:04:33;;;;;;;3.10;2.80;;;13.10;99.90;;;;;;5130899;27;20208;-69
2022/10/20 10:07:00;;;;;;;4.60;2.60;;;13.10;99.90;;;;;;5130511;27;20216;-67
2022/10/20 10:09:29;;;;;;;5.93;3.07;;;13.20;99.90;;;;;;5130937;27;20209;-68
2022/10/20 10:12:02;;;;;;;3.10;2.77;;;13.30;99.90;;;;;;5130483;27;20205;-67
2022/10/20 10:14:32;;;;;;;2.97;2.70;;;13.30;99.90;;;;;;5130934;27;20186;-68
2022/10/20 10:16:59;;;;;;;4.37;2.80;;;13.50;99.90;;;;;;5130648;27;20237;-68
2022/10/20 10:19:29;;;;;;;4.13;2.90;;;13.50;99.90;;;;;;5130453;27;20817;-69
2022/10/20 10:21:58;;;;;;;2.97;2.50;;;13.70;99.90;;;;;;5127942;27;20206;-70
2022/10/20 10:24:38;;;;;;;3.10;2.90;;;13.80;99.90;;;;;;5130201;27;20206;-68
2022/10/20 10:27:19;;;;;;;2.80;2.60;;;13.90;99.90;;;;;;5121898;27;20198;-68
2022/10/20 10:29:47;;;;;;;3.20;3.00;;;14.00;99.90;;;;;;5130020;27;20321;-68
2022/10/20 10:32:16;;;;;;;2.83;2.63;;;14.00;99.90;;;;;;5130684;27;20254;-68
2022/10/20 10:34:58;;;;;;;8.20;2.90;;;14.00;99.90;;;;;;5129815;27;20201;-68
2022/10/20 10:37:25;;;;;;;4.63;2.40;;;14.00;99.90;;;;;;5130283;27;20319;-68
2022/10/20 10:39:52;;;;;;;2.67;2.40;;;14.20;99.90;;;;;;5130185;27;20198;-68
2022/10/20 10:42:45;;;;;;;2.77;2.47;;;14.20;99.90;;;;;;5130151;27;20205;-67
2022/10/20 10:45:30;;;;;;;2.73;2.47;;;14.20;99.90;;;;;;5130016;27;20209;-67
2022/10/20 10:48:27;;;;;;;3.10;2.53;;;14.30;99.90;;;;;;5129892;27;20604;-68
2022/10/20 10:50:58;;;;;;;5.13;2.30;;;14.40;99.90;;;;;;5130016;27;20548;-67
2022/10/20 10:53:40;;;;;;;4.30;2.70;;;14.50;99.90;;;;;;5109750;27;20221;-68
2022/10/20 10:56:15;;;;;;;2.30;2.10;;;14.60;99.90;;;;;;5109178;28;20226;-68
2022/10/20 10:58:46;;;;;;;2.63;2.43;;;14.70;99.90;;;;;;5113932;27;20216;-68
2022/10/20 11:01:34;;;;;;;3.77;2.73;;;14.70;99.90;;;;;;5129874;27;20194;-68
2022/10/20 11:04:28;;;;;;;2.50;2.30;;;14.80;99.90;;;;;;5128488;27;20202;-68
2022/10/20 11:06:59;;;;;;;3.70;2.77;;;15.00;99.90;;;;;;5129413;27;20699;-68
2022/10/20 11:09:34;;;;;;;2.40;2.20;;;15.10;99.90;;;;;;5129844;27;20694;-66
2022/10/20 11:12:20;;;;;;;2.33;2.23;;;15.30;99.90;;;;;;5129717;27;20216;-66
2022/10/20 11:14:55;;;;;;;3.47;2.40;;;15.40;99.90;;;;;;5110860;27;20202;-66
2022/10/20 11:17:37;;;;;;;2.60;2.20;;;15.40;99.90;;;;;;5106774;28;20233;-66
2022/10/20 11:20:19;;;;;;;2.90;2.00;;;15.50;99.90;;;;;;5106862;28;20256;-66
2022/10/20 11:23:09;;;;;;;3.20;1.97;;;15.60;99.90;;;;;;5111437;27;20212;-66
2022/10/20 11:25:46;;;;;;;4.07;2.03;;;15.80;99.90;;;;;;5106672;28;20206;-66
2022/10/20 11:28:27;;;;;;;2.10;2.00;;;15.90;99.90;;;;;;5107132;28;20194;-66
2022/10/20 11:30:56;;;;;;;2.80;2.10;;;15.90;99.90;;;;;;5124139;27;20189;-66
2022/10/20 11:33:28;;;;;;;2.10;2.00;;;16.00;99.90;;;;;;5127713;27;20219;-66
2022/10/20 11:36:00;;;;;;;1.93;1.83;;;16.10;99.90;;;;;;5126796;27;20226;-66
2022/10/20 11:38:31;;;;;;;3.13;2.30;;;16.20;99.90;;;;;;5106059;28;20671;-66
2022/10/20 11:41:05;;;;;;;2.20;1.80;;;16.20;99.90;;;;;;5106352;28;20198;-67
2022/10/20 11:43:37;;;;;;;3.90;1.90;;;16.20;99.90;;;;;;5106687;28;20209;-66
2022/10/20 11:46:06;;;;;;;4.40;1.97;;;16.30;99.90;;;;;;5106303;28;20198;-66
2022/10/20 11:48:40;;;;;;;2.83;1.90;;;16.30;99.90;;;;;;5106436;28;20209;-67
2022/10/20 11:51:48;;;;;;;2.03;1.90;;;16.50;99.90;;;;;;5106526;28;20209;-67
2022/10/20 11:54:46;;;;;;;2.63;2.43;;;16.50;99.90;;;;;;5079195;27;20212;-67
2022/10/20 11:57:19;;;;;;;2.13;2.00;;;16.50;99.90;;;;;;5105760;28;20222;-67
2022/10/20 12:00:23;;;;;;;2.60;1.90;;;16.60;99.90;;;;;;5106151;28;20194;-67
2022/10/20 12:03:27;;;;;;;2.43;2.17;;;16.60;99.90;;;;;;5089658;28;20230;-68
2022/10/20 12:06:26;;;;;;;4.70;2.17;;;16.60;99.90;;;;;;5109318;27;20216;-68
2022/10/20 12:09:14;;;;;;;2.07;1.90;;;16.60;99.90;;;;;;5126088;27;20222;-68
2022/10/20 12:11:51;;;;;;;3.37;2.23;;;16.60;99.90;;;;;;5116240;27;20216;-68
2022/10/20 12:14:24;;;;;;;2.33;2.13;;;16.70;99.90;;;;;;5127013;27;20193;-68
2022/10/20 12:17:26;;;;;;;4.43;2.10;;;16.80;99.90;;;;;;5126389;27;20244;-68
2022/10/20 12:20:13;;;;;;;5.93;2.00;;;16.80;99.90;;;;;;5120462;27;20197;-68
2022/10/20 12:22:42;;;;;;;2.57;2.00;;;16.80;99.90;;;;;;5118139;27;20711;-68
2022/10/20 12:25:24;;;;;;;3.10;2.27;;;16.80;99.90;;;;;;5122863;27;20402;-68
2022/10/20 12:28:26;;;;;;;2.27;2.07;;;16.80;99.90;;;;;;5105353;28;20194;-68
2022/10/20 12:30:58;;;;;;;2.20;2.00;;;17.00;99.90;;;;;;5118549;28;20265;-68
2022/10/20 12:33:36;;;;;;;2.63;1.73;;;17.20;99.90;;;;;;5124738;27;20209;-68
2022/10/20 12:36:28;;;;;;;3.00;2.17;;;17.40;99.90;;;;;;5123091;28;20224;-68
2022/10/20 12:39:13;;;;;;;2.23;2.00;;;17.60;99.90;;;;;;5125922;27;20212;-68
2022/10/20 12:41:45;;;;;;;3.70;2.33;;;17.50;99.90;;;;;;5110211;28;20592;-68
2022/10/20 12:44:16;;;;;;;4.47;2.40;;;17.50;99.90;;;;;;5126536;27;20186;-67
2022/10/20 12:46:52;;;;;;;2.43;2.23;;;17.50;99.90;;;;;;5125819;27;20193;-68
2022/10/20 12:49:27;;;;;;;2.90;2.60;;;17.50;99.90;;;;;;5115240;28;20189;-69
2022/10/20 12:51:57;;;;;;;3.17;2.53;;;17.70;99.90;;;;;;5126520;27;20245;-68
2022/10/20 12:54:33;;;;;;;2.50;2.20;;;17.70;99.90;;;;;;5126454;27;20609;-68
2022/10/20 12:57:03;;;;;;;2.80;1.90;;;17.90;99.90;;;;;;5125855;27;20213;-68
2022/10/20 12:59:39;;;;;;;2.80;2.30;;;17.90;99.90;;;;;;5125360;27;20210;-68
2022/10/20 13:02:31;;;;;;;4.57;2.10;;;18.00;99.90;;;;;;5125668;27;20237;-68
2022/10/20 13:05:00;;;;;;;2.40;2.20;;;17.90;99.90;;;;;;5100950;27;20205;-72
2022/10/20 13:07:59;;;;;;;4.70;2.00;;;17.70;99.90;;;;;;5125584;27;20205;-67
2022/10/20 13:10:32;;;;;;;2.30;2.20;;;17.80;99.90;;;;;;5125749;27;20206;-67
2022/10/20 13:13:44;;;;;;;2.40;2.27;;;17.70;99.90;;;;;;5126133;27;20190;-67
2022/10/20 13:16:21;;;;;;;4.63;2.40;;;17.70;99.90;;;;;;5064321;28;20292;-68